createdAt,value
2019-03-28T00:02:08.949Z,5.77
2019-03-28T00:04:35.761Z,5.77
2019-03-28T00:07:02.556Z,5.74
2019-03-28T00:09:29.430Z,5.77
2019-03-28T00:11:56.231Z,5.73
2019-03-28T00:14:23.004Z,5.77
2019-03-28T00:16:50.168Z,5.78
2019-03-28T00:19:17.091Z,5.74
2019-03-28T00:21:43.962Z,5.74
2019-03-28T00:24:12.972Z,5.76
2019-03-28T00:26:40.214Z,5.76
2019-03-28T00:29:06.977Z,5.76
2019-03-28T00:31:33.947Z,5.74
2019-03-28T00:34:02.674Z,5.78
2019-03-28T00:36:29.490Z,5.79
2019-03-28T00:38:56.461Z,5.75
2019-03-28T00:41:23.552Z,5.77
2019-03-28T00:43:51.329Z,5.82
2019-03-28T00:46:18.149Z,5.79
2019-03-28T00:48:44.925Z,5.81
2019-03-28T00:51:11.912Z,5.83
2019-03-28T00:53:39.319Z,5.81
2019-03-28T00:56:06.377Z,5.83
2019-03-28T00:58:33.252Z,5.81
2019-03-28T01:01:00.064Z,5.84
2019-03-28T01:03:26.826Z,5.83
2019-03-28T01:05:53.589Z,5.89
2019-03-28T01:08:20.417Z,5.85
2019-03-28T01:10:47.396Z,5.89
2019-03-28T01:13:14.902Z,5.89
2019-03-28T01:15:41.718Z,5.91
2019-03-28T01:18:08.569Z,5.95
2019-03-28T01:20:35.943Z,6.00
2019-03-28T01:23:03.027Z,5.99
2019-03-28T01:25:29.793Z,6.08
2019-03-28T01:27:56.581Z,6.11
2019-03-28T01:30:23.507Z,6.09
2019-03-28T01:32:51.001Z,6.11
2019-03-28T01:35:17.826Z,6.06
2019-03-28T01:37:44.587Z,6.11
2019-03-28T01:40:11.509Z,6.15
2019-03-28T01:42:38.294Z,6.16
2019-03-28T01:45:05.387Z,6.19
2019-03-28T01:47:32.272Z,6.18
2019-03-28T01:49:59.045Z,6.20
2019-03-28T01:52:25.864Z,6.25
2019-03-28T01:54:52.797Z,6.23
2019-03-28T01:57:19.803Z,6.24
2019-03-28T01:59:46.659Z,6.23
2019-03-28T02:02:13.483Z,6.21
2019-03-28T02:04:40.236Z,6.22
2019-03-28T02:07:07.325Z,6.21
2019-03-28T02:09:34.146Z,6.22
2019-03-28T02:12:00.949Z,6.24
2019-03-28T02:14:27.725Z,6.26
2019-03-28T02:16:54.729Z,6.33
2019-03-28T02:19:21.473Z,6.36
2019-03-28T02:21:48.541Z,6.36
2019-03-28T02:24:16.371Z,6.36
2019-03-28T02:26:43.086Z,6.37
2019-03-28T02:29:09.873Z,6.36
2019-03-28T02:31:36.717Z,6.40
2019-03-28T02:34:03.536Z,6.40
2019-03-28T02:36:30.283Z,6.44
2019-03-28T02:38:57.113Z,6.38
2019-03-28T02:41:24.053Z,6.39
2019-03-28T02:43:50.784Z,6.40
2019-03-28T02:46:17.499Z,6.44
2019-03-28T02:48:44.325Z,6.45
2019-03-28T02:51:11.267Z,6.49
2019-03-28T02:53:39.556Z,6.47
2019-03-28T02:56:06.483Z,6.49
2019-03-28T02:58:33.368Z,6.44
2019-03-28T03:01:00.176Z,6.45
2019-03-28T03:03:26.983Z,6.47
2019-03-28T03:05:53.789Z,6.48
2019-03-28T03:08:20.526Z,6.47
2019-03-28T03:10:47.361Z,6.46
2019-03-28T03:13:14.160Z,6.48
2019-03-28T03:15:40.886Z,6.47
2019-03-28T03:18:08.487Z,6.51
2019-03-28T03:20:35.560Z,6.49
2019-03-28T03:23:02.400Z,6.49
2019-03-28T03:25:29.364Z,6.53
2019-03-28T03:27:58.391Z,6.55
2019-03-28T03:30:25.742Z,6.58
2019-03-28T03:32:52.583Z,6.59
2019-03-28T03:35:19.567Z,6.58
2019-03-28T03:37:46.293Z,6.62
2019-03-28T03:40:13.042Z,6.57
2019-03-28T03:42:39.899Z,6.56
2019-03-28T03:45:07.160Z,6.56
2019-03-28T03:47:33.848Z,6.60
2019-03-28T03:50:00.620Z,6.64
2019-03-28T03:52:27.440Z,6.67
2019-03-28T03:54:54.911Z,6.71
2019-03-28T03:57:21.682Z,6.70
2019-03-28T03:59:48.402Z,6.71
2019-03-28T04:02:15.453Z,6.71
2019-03-28T04:04:42.396Z,6.66
2019-03-28T04:07:09.302Z,6.54
2019-03-28T04:09:36.214Z,6.48
2019-03-28T04:12:03.154Z,6.50
2019-03-28T04:14:30.002Z,6.46
2019-03-28T04:16:57.412Z,6.51
2019-03-28T04:19:24.276Z,6.50
2019-03-28T04:21:51.024Z,6.50
2019-03-28T04:24:17.963Z,6.47
2019-03-28T04:26:44.922Z,6.47
2019-03-28T04:29:12.232Z,6.43
2019-03-28T04:31:39.276Z,6.41
2019-03-28T04:34:07.795Z,6.31
2019-03-28T04:36:34.892Z,6.33
2019-03-28T04:39:01.729Z,6.24
2019-03-28T04:41:28.545Z,6.24
2019-03-28T04:43:56.057Z,6.26
2019-03-28T04:46:23.075Z,6.13
2019-03-28T04:48:50.814Z,6.15
2019-03-28T04:51:17.840Z,6.04
2019-03-28T04:53:44.612Z,6.08
2019-03-28T04:56:12.661Z,6.07
2019-03-28T04:58:44.736Z,6.10
2019-03-28T05:01:09.562Z,6.15
2019-03-28T05:03:36.753Z,6.18
2019-03-28T05:06:03.588Z,6.18
2019-03-28T05:08:30.478Z,6.22
2019-03-28T05:10:58.738Z,6.14
2019-03-28T05:13:25.863Z,6.15
2019-03-28T05:15:54.643Z,6.12
2019-03-28T05:18:21.843Z,6.02
2019-03-28T05:20:48.871Z,6.02
2019-03-28T05:23:15.683Z,5.98
2019-03-28T05:25:42.485Z,5.99
2019-03-28T05:28:09.662Z,6.02
2019-03-28T05:30:36.957Z,6.05
2019-03-28T05:33:05.817Z,6.08
2019-03-28T05:35:34.560Z,5.99
2019-03-28T05:38:02.808Z,6.03
2019-03-28T05:40:29.623Z,5.98
2019-03-28T05:42:56.410Z,5.99
2019-03-28T05:45:25.025Z,6.01
2019-03-28T05:47:51.961Z,6.02
2019-03-28T05:50:18.977Z,6.08
2019-03-28T05:52:45.815Z,6.04
2019-03-28T05:55:12.678Z,6.11
2019-03-28T05:57:39.531Z,6.16
2019-03-28T06:00:06.583Z,6.09
2019-03-28T06:02:33.386Z,6.15
2019-03-28T06:05:00.614Z,6.19
2019-03-28T06:07:27.764Z,6.20
2019-03-28T06:09:54.587Z,6.22
2019-03-28T06:12:21.401Z,6.11
2019-03-28T06:14:48.198Z,6.08
2019-03-28T06:17:15.330Z,6.13
2019-03-28T06:19:42.069Z,6.20
2019-03-28T06:22:10.466Z,6.18
2019-03-28T06:24:37.630Z,6.27
2019-03-28T06:27:05.605Z,6.25
2019-03-28T06:29:33.507Z,6.26
2019-03-28T06:32:00.552Z,6.38
2019-03-28T06:34:27.976Z,6.43
2019-03-28T06:36:54.922Z,6.43
2019-03-28T06:39:23.530Z,6.40
2019-03-28T06:41:52.519Z,6.48
2019-03-28T06:44:19.620Z,6.58
2019-03-28T06:46:47.087Z,6.60
2019-03-28T06:49:14.472Z,6.67
2019-03-28T06:51:41.207Z,6.67
2019-03-28T06:54:08.294Z,6.62
2019-03-28T06:56:35.948Z,6.64
2019-03-28T06:59:06.940Z,6.72
2019-03-28T07:01:33.794Z,6.71
2019-03-28T07:04:20.075Z,6.79
2019-03-28T07:06:48.867Z,6.81
2019-03-28T07:09:37.085Z,6.83
2019-03-28T07:12:23.292Z,6.86
2019-03-28T07:15:08.341Z,6.86
2019-03-28T07:17:43.465Z,6.80
2019-03-28T07:20:10.472Z,6.83
2019-03-28T07:22:37.604Z,6.83
2019-03-28T07:25:05.524Z,6.88
2019-03-28T07:27:32.725Z,6.92
2019-03-28T07:30:01.534Z,6.89
2019-03-28T07:32:28.454Z,6.97
2019-03-28T07:34:55.423Z,6.95
2019-03-28T07:37:24.083Z,7.07
2019-03-28T07:39:51.515Z,7.12
2019-03-28T07:42:20.147Z,7.17
2019-03-28T07:45:04.770Z,7.22
2019-03-28T07:48:03.339Z,7.25
2019-03-28T07:50:33.284Z,7.28
2019-03-28T07:52:59.283Z,7.36
2019-03-28T07:55:26.585Z,7.41
2019-03-28T07:57:53.534Z,7.40
2019-03-28T08:00:20.896Z,7.54
2019-03-28T08:02:48.072Z,7.57
2019-03-28T08:05:16.761Z,7.56
2019-03-28T08:07:45.590Z,7.63
2019-03-28T08:10:15.044Z,7.55
2019-03-28T08:12:43.737Z,7.50
2019-03-28T08:15:18.476Z,7.46
2019-03-28T08:18:03.288Z,7.59
2019-03-28T08:20:48.434Z,7.66
2019-03-28T08:23:46.930Z,7.75
2019-03-28T08:26:31.769Z,7.91
2019-03-28T08:29:16.790Z,7.90
2019-03-28T08:31:45.901Z,8.03
2019-03-28T08:34:12.766Z,8.14
2019-03-28T08:36:39.678Z,8.17
2019-03-28T08:39:06.652Z,8.23
2019-03-28T08:41:33.412Z,8.20
2019-03-28T08:44:00.152Z,8.17
2019-03-28T08:46:27.124Z,8.15
2019-03-28T08:48:54.000Z,8.16
2019-03-28T08:51:20.882Z,8.18
2019-03-28T08:53:48.099Z,8.16
2019-03-28T08:56:14.999Z,8.28
2019-03-28T08:58:41.770Z,8.29
2019-03-28T09:01:08.603Z,8.46
2019-03-28T09:03:35.464Z,8.42
2019-03-28T09:06:02.191Z,8.45
2019-03-28T09:08:28.955Z,8.45
2019-03-28T09:10:56.363Z,8.53
2019-03-28T09:13:23.273Z,8.59
2019-03-28T09:15:50.045Z,8.62
2019-03-28T09:18:16.937Z,8.73
2019-03-28T09:20:43.651Z,8.73
2019-03-28T09:23:10.424Z,8.72
2019-03-28T09:25:37.281Z,8.86
2019-03-28T09:28:04.018Z,8.91
2019-03-28T09:30:47.381Z,8.97
2019-03-28T09:33:03.864Z,9.05
2019-03-28T09:35:30.634Z,9.14
2019-03-28T09:37:57.414Z,9.15
2019-03-28T09:40:24.193Z,9.19
2019-03-28T09:42:50.924Z,9.13
2019-03-28T09:45:17.752Z,8.91
2019-03-28T09:47:44.479Z,8.98
2019-03-28T09:50:11.463Z,9.06
2019-03-28T09:52:38.244Z,8.96
2019-03-28T09:55:05.072Z,9.20
2019-03-28T09:57:31.941Z,9.45
2019-03-28T09:59:58.701Z,9.59
2019-03-28T10:02:25.419Z,9.73
2019-03-28T10:04:52.263Z,9.70
2019-03-28T10:07:18.933Z,9.92
2019-03-28T10:09:46.272Z,9.94
2019-03-28T10:12:13.120Z,10.07
2019-03-28T10:14:39.913Z,10.07
2019-03-28T10:17:06.679Z,10.05
2019-03-28T10:19:33.562Z,10.09
2019-03-28T10:22:00.365Z,10.08
2019-03-28T10:24:27.197Z,9.98
2019-03-28T10:26:55.187Z,9.96
2019-03-28T10:29:21.937Z,10.05
2019-03-28T10:31:48.719Z,10.16
2019-03-28T10:34:15.467Z,10.19
2019-03-28T10:36:42.335Z,10.30
2019-03-28T10:39:09.215Z,10.37
2019-03-28T10:41:38.286Z,10.54
2019-03-28T10:44:04.642Z,10.48
2019-03-28T10:46:31.449Z,10.60
2019-03-28T10:48:58.307Z,10.66
2019-03-28T10:51:25.048Z,10.89
2019-03-28T10:53:51.844Z,10.93
2019-03-28T10:56:23.363Z,10.88
2019-03-28T10:58:47.703Z,10.68
2019-03-28T11:01:16.644Z,10.65
2019-03-28T11:03:43.291Z,10.71
2019-03-28T11:06:10.225Z,10.79
2019-03-28T11:08:37.102Z,10.88
2019-03-28T11:11:03.943Z,10.93
2019-03-28T11:13:30.867Z,10.85
2019-03-28T11:15:57.753Z,10.89
2019-03-28T11:18:24.634Z,10.84
2019-03-28T11:20:53.354Z,10.74
2019-03-28T11:23:20.128Z,10.75
2019-03-28T11:25:46.931Z,10.81
2019-03-28T11:28:13.766Z,10.73
2019-03-28T11:30:40.501Z,10.72
2019-03-28T11:33:07.265Z,10.74
2019-03-28T11:35:34.007Z,10.83
2019-03-28T11:38:00.795Z,10.82
2019-03-28T11:40:27.657Z,10.75
2019-03-28T11:42:54.396Z,10.79
2019-03-28T11:45:21.251Z,10.85
2019-03-28T11:47:48.115Z,10.94
2019-03-28T11:50:17.168Z,11.05
2019-03-28T11:52:43.550Z,11.10
2019-03-28T11:55:10.770Z,11.18
2019-03-28T11:57:39.664Z,11.24
2019-03-28T12:00:11.718Z,11.23
2019-03-28T12:02:38.534Z,11.09
2019-03-28T12:05:05.784Z,11.08
2019-03-28T12:07:32.768Z,10.94
2019-03-28T12:09:59.553Z,11.00
2019-03-28T12:12:26.937Z,10.60
2019-03-28T12:14:53.710Z,10.72
2019-03-28T12:17:20.483Z,10.80
2019-03-28T12:19:47.402Z,10.81
2019-03-28T12:22:14.366Z,10.66
2019-03-28T12:24:41.110Z,10.60
2019-03-28T12:27:08.118Z,10.33
2019-03-28T12:29:35.892Z,10.18
2019-03-28T12:32:13.338Z,9.77
2019-03-28T12:34:31.934Z,9.70
2019-03-28T12:36:58.680Z,9.49
2019-03-28T12:39:25.694Z,9.37
2019-03-28T12:41:52.407Z,9.27
2019-03-28T12:44:19.237Z,9.24
2019-03-28T12:46:46.189Z,9.07
2019-03-28T12:49:12.994Z,9.05
2019-03-28T12:51:39.726Z,9.08
2019-03-28T12:54:06.506Z,9.18
2019-03-28T12:56:33.362Z,9.26
2019-03-28T12:59:00.184Z,9.30
2019-03-28T13:01:26.968Z,9.41
2019-03-28T13:03:53.683Z,9.51
2019-03-28T13:06:22.820Z,9.66
2019-03-28T13:08:53.362Z,9.88
2019-03-28T13:11:20.264Z,10.03
2019-03-28T13:13:47.205Z,10.12
2019-03-28T13:16:13.995Z,10.15
2019-03-28T13:18:45.326Z,10.17
2019-03-28T13:21:14.191Z,10.35
2019-03-28T13:23:41.224Z,10.50
2019-03-28T13:26:09.371Z,10.55
2019-03-28T13:28:36.243Z,10.73
2019-03-28T13:31:03.194Z,10.79
2019-03-28T13:33:30.687Z,10.73
2019-03-28T13:35:57.646Z,10.74
2019-03-28T13:38:24.474Z,10.80
2019-03-28T13:40:51.697Z,10.78
2019-03-28T13:43:20.975Z,10.68
2019-03-28T13:45:53.656Z,10.68
2019-03-28T13:48:20.892Z,10.59
2019-03-28T13:50:47.969Z,10.60
2019-03-28T13:53:14.809Z,10.69
2019-03-28T13:55:41.562Z,10.65
2019-03-28T13:58:08.316Z,10.85
2019-03-28T14:00:35.356Z,10.81
2019-03-28T14:03:02.152Z,10.84
2019-03-28T14:05:28.964Z,11.00
2019-03-28T14:07:55.888Z,11.09
2019-03-28T14:10:22.682Z,11.18
2019-03-28T14:12:49.388Z,11.23
2019-03-28T14:15:16.166Z,11.27
2019-03-28T14:17:43.068Z,11.27
2019-03-28T14:20:09.791Z,11.29
2019-03-28T14:22:36.706Z,11.29
2019-03-28T14:25:06.478Z,11.28
2019-03-28T14:27:33.211Z,11.25
2019-03-28T14:30:00.158Z,11.23
2019-03-28T14:32:28.078Z,11.17
2019-03-28T14:34:55.563Z,11.11
2019-03-28T14:37:22.453Z,11.14
2019-03-28T14:39:49.465Z,10.97
2019-03-28T14:42:19.502Z,10.97
2019-03-28T14:44:45.452Z,10.93
2019-03-28T14:47:12.205Z,11.03
2019-03-28T14:49:39.175Z,11.10
2019-03-28T14:52:05.950Z,11.05
2019-03-28T14:54:32.681Z,11.09
2019-03-28T14:56:59.594Z,11.13
2019-03-28T14:59:32.462Z,11.08
2019-03-28T15:01:55.150Z,10.95
2019-03-28T15:04:21.916Z,10.72
2019-03-28T15:06:48.658Z,10.68
2019-03-28T15:09:15.407Z,10.66
2019-03-28T15:11:42.192Z,10.74
2019-03-28T15:14:08.919Z,10.80
2019-03-28T15:16:35.654Z,10.87
2019-03-28T15:19:02.407Z,10.94
2019-03-28T15:21:29.129Z,10.94
2019-03-28T15:23:55.961Z,10.81
2019-03-28T15:26:22.758Z,10.84
2019-03-28T15:28:49.486Z,10.82
2019-03-28T15:31:16.312Z,10.81
2019-03-28T15:33:43.144Z,10.75
2019-03-28T15:36:09.974Z,10.93
2019-03-28T15:38:36.734Z,10.85
2019-03-28T15:41:03.510Z,10.92
2019-03-28T15:43:30.325Z,10.93
2019-03-28T15:45:57.076Z,11.03
2019-03-28T15:48:23.916Z,11.05
2019-03-28T15:50:50.752Z,11.07
2019-03-28T15:53:17.492Z,11.11
2019-03-28T15:55:44.272Z,11.10
2019-03-28T15:58:22.663Z,11.07
2019-03-28T16:00:39.767Z,11.08
2019-03-28T16:03:06.577Z,11.09
2019-03-28T16:05:33.457Z,11.13
2019-03-28T16:08:01.050Z,11.12
2019-03-28T16:10:28.093Z,11.15
2019-03-28T16:12:54.934Z,11.07
2019-03-28T16:15:22.432Z,11.05
2019-03-28T16:17:49.729Z,11.05
2019-03-28T16:20:16.480Z,11.06
2019-03-28T16:22:43.256Z,10.98
2019-03-28T16:25:10.162Z,10.96
2019-03-28T16:27:37.096Z,10.92
2019-03-28T16:30:07.071Z,10.90
2019-03-28T16:32:33.736Z,10.85
2019-03-28T16:35:00.607Z,10.73
2019-03-28T16:37:27.810Z,10.70
2019-03-28T16:39:54.756Z,10.69
2019-03-28T16:42:21.486Z,10.66
2019-03-28T16:44:49.278Z,10.59
2019-03-28T16:47:16.108Z,10.50
2019-03-28T16:49:42.997Z,10.49
2019-03-28T16:52:09.727Z,10.44
2019-03-28T16:54:36.475Z,10.39
2019-03-28T16:57:03.453Z,10.34
2019-03-28T16:59:30.359Z,10.29
2019-03-28T17:01:57.136Z,10.23
2019-03-28T17:04:23.946Z,10.16
2019-03-28T17:06:56.906Z,10.07
2019-03-28T17:10:40.907Z,9.98
2019-03-28T17:13:16.417Z,9.45
2019-03-28T17:15:43.309Z,9.67
2019-03-28T17:18:10.028Z,9.54
2019-03-28T17:20:36.884Z,9.46
2019-03-28T17:23:03.686Z,9.45
2019-03-28T17:25:32.701Z,9.38
2019-03-28T17:27:59.467Z,9.31
2019-03-28T17:30:26.983Z,9.24
2019-03-28T17:32:54.033Z,9.13
2019-03-28T17:35:20.993Z,9.04
2019-03-28T17:37:47.693Z,8.99
2019-03-28T17:40:14.429Z,9.02
2019-03-28T17:42:41.173Z,8.96
2019-03-28T17:45:08.083Z,8.92
2019-03-28T17:47:34.970Z,8.85
2019-03-28T17:50:01.837Z,8.82
2019-03-28T17:52:28.607Z,8.81
2019-03-28T17:54:55.465Z,8.83
2019-03-28T17:57:22.195Z,8.79
2019-03-28T17:59:49.038Z,8.71
2019-03-28T18:02:15.879Z,8.66
2019-03-28T18:04:48.229Z,8.54
2019-03-28T18:07:11.363Z,8.56
2019-03-28T18:09:38.285Z,8.47
2019-03-28T18:12:04.995Z,8.47
2019-03-28T18:14:31.871Z,8.49
2019-03-28T18:16:59.548Z,8.47
2019-03-28T18:19:26.387Z,8.43
2019-03-28T18:22:03.264Z,8.35
2019-03-28T18:24:21.920Z,8.29
2019-03-28T18:26:48.862Z,8.29
2019-03-28T18:29:19.005Z,8.31
2019-03-28T18:31:50.295Z,8.31
2019-03-28T18:34:13.046Z,8.33
2019-03-28T18:36:39.834Z,8.31
2019-03-28T18:39:06.636Z,8.25
2019-03-28T18:41:33.364Z,8.28
2019-03-28T18:44:00.123Z,8.30
2019-03-28T18:46:26.895Z,8.27
2019-03-28T18:48:53.632Z,8.27
2019-03-28T18:51:20.400Z,8.21
2019-03-28T18:53:47.146Z,8.18
2019-03-28T18:56:13.889Z,8.18
2019-03-28T18:58:40.677Z,8.11
2019-03-28T19:01:07.881Z,8.04
2019-03-28T19:03:35.719Z,7.88
2019-03-28T19:06:02.624Z,7.73
2019-03-28T19:08:29.350Z,7.60
2019-03-28T19:10:56.150Z,7.52
2019-03-28T19:13:23.026Z,7.53
2019-03-28T19:15:50.150Z,7.51
2019-03-28T19:18:16.966Z,7.44
2019-03-28T19:20:43.717Z,7.35
2019-03-28T19:23:10.440Z,7.26
2019-03-28T19:25:37.218Z,7.13
2019-03-28T19:28:07.265Z,7.01
2019-03-28T19:30:33.390Z,7.00
2019-03-28T19:33:00.373Z,6.91
2019-03-28T19:35:32.925Z,6.87
2019-03-28T19:37:56.000Z,6.73
2019-03-28T19:40:22.771Z,6.71
2019-03-28T19:42:49.752Z,6.76
2019-03-28T19:45:20.670Z,6.82
2019-03-28T19:47:47.438Z,6.89
2019-03-28T19:50:25.353Z,6.91
2019-03-28T19:52:52.193Z,6.90
2019-03-28T19:55:22.128Z,6.81
2019-03-28T19:57:48.882Z,6.72
2019-03-28T20:00:15.659Z,6.62
2019-03-28T20:02:42.534Z,6.54
2019-03-28T20:05:09.364Z,6.54
2019-03-28T20:07:36.040Z,6.52
2019-03-28T20:10:15.788Z,6.54
2019-03-28T20:12:32.549Z,6.60
2019-03-28T20:15:00.347Z,6.71
2019-03-28T20:17:27.441Z,6.78
2019-03-28T20:19:54.826Z,6.83
2019-03-28T20:22:21.845Z,6.90
2019-03-28T20:24:48.796Z,6.96
2019-03-28T20:27:15.579Z,7.03
2019-03-28T20:29:42.371Z,7.10
2019-03-28T20:32:09.197Z,7.14
2019-03-28T20:34:36.168Z,7.19
2019-03-28T20:37:03.115Z,7.22
2019-03-28T20:39:29.961Z,7.23
2019-03-28T20:41:56.728Z,7.20
2019-03-28T20:44:23.505Z,7.05
2019-03-28T20:46:50.273Z,6.99
2019-03-28T20:49:17.009Z,6.87
2019-03-28T20:51:43.798Z,6.77
2019-03-28T20:54:10.688Z,6.68
2019-03-28T20:56:37.522Z,6.64
2019-03-28T20:59:04.273Z,6.59
2019-03-28T21:01:31.173Z,6.54
2019-03-28T21:03:58.182Z,6.54
2019-03-28T21:06:24.949Z,6.58
2019-03-28T21:08:51.734Z,6.61
2019-03-28T21:11:18.501Z,6.55
2019-03-28T21:13:45.776Z,6.50
2019-03-28T21:16:12.600Z,6.46
2019-03-28T21:18:39.389Z,6.45
2019-03-28T21:21:06.165Z,6.47
2019-03-28T21:23:32.880Z,6.53
2019-03-28T21:25:59.671Z,6.63
2019-03-28T21:28:26.406Z,6.72
2019-03-28T21:30:53.178Z,6.74
2019-03-28T21:33:19.937Z,6.75
2019-03-28T21:35:47.189Z,6.77
2019-03-28T21:38:13.949Z,6.77
2019-03-28T21:40:40.799Z,6.81
2019-03-28T21:43:07.547Z,6.87
2019-03-28T21:45:34.401Z,6.89
2019-03-28T21:48:01.165Z,6.90
2019-03-28T21:50:27.883Z,6.88
2019-03-28T21:52:54.724Z,6.81
2019-03-28T21:55:21.477Z,6.70
2019-03-28T21:57:48.208Z,6.57
2019-03-28T22:00:15.510Z,6.43
2019-03-28T22:02:42.293Z,6.22
2019-03-28T22:05:09.051Z,6.14
2019-03-28T22:07:35.771Z,5.99
2019-03-28T22:10:08.345Z,5.92
2019-03-28T22:12:33.419Z,5.81
2019-03-28T22:15:00.356Z,5.76
2019-03-28T22:17:27.564Z,5.68
2019-03-28T22:19:54.277Z,5.66
2019-03-28T22:22:21.215Z,5.72
2019-03-28T22:24:47.948Z,5.77
2019-03-28T22:27:14.801Z,5.73
2019-03-28T22:29:41.676Z,5.73
2019-03-28T22:32:11.567Z,5.75
2019-03-28T22:34:37.199Z,5.76
2019-03-28T22:37:04.427Z,5.74
2019-03-28T22:39:31.161Z,5.74
2019-03-28T22:41:58.013Z,5.75
2019-03-28T22:44:25.034Z,5.82
2019-03-28T22:46:51.986Z,5.90
2019-03-28T22:49:18.751Z,5.94
2019-03-28T22:51:45.545Z,5.91
2019-03-28T22:54:12.303Z,5.97
2019-03-28T22:56:39.063Z,5.96
2019-03-28T22:59:05.816Z,5.98
2019-03-28T23:01:32.653Z,5.97
2019-03-28T23:03:59.505Z,5.99
2019-03-28T23:06:26.294Z,5.98
2019-03-28T23:08:53.002Z,5.90
2019-03-28T23:11:19.935Z,5.90
2019-03-28T23:13:46.696Z,5.92
2019-03-28T23:16:13.503Z,5.88
2019-03-28T23:18:40.217Z,5.95
2019-03-28T23:21:06.929Z,5.89
2019-03-28T23:23:33.740Z,5.92
2019-03-28T23:26:00.463Z,5.94
2019-03-28T23:28:27.214Z,5.94
2019-03-28T23:30:54.221Z,5.91
2019-03-28T23:33:21.674Z,5.92
2019-03-28T23:35:48.722Z,5.90
2019-03-28T23:38:15.545Z,5.88
2019-03-28T23:40:42.250Z,5.89
2019-03-28T23:43:09.293Z,5.91
2019-03-28T23:45:36.698Z,5.93
2019-03-28T23:48:03.457Z,5.75
2019-03-28T23:50:30.302Z,5.95
2019-03-28T23:52:57.182Z,5.88
2019-03-28T23:55:25.355Z,5.80
2019-03-28T23:57:52.142Z,5.67
